XNO2282 DTNH-EGGD
Flight info
| Callsign | XNO2282 |
|---|---|
| Flight time | 2h 59m |
| Altitude | 34000 |
| Route | VAXAL1C VAXAL A411 TUC UA725 OSMAR DCT PIRIX DCT INDUM DCT UPDUT DCT CORSI DCT OMEDA DCT MERLU DCT PIGOS DCT BARSO DCT OKTET DCT GIPNO DCT BULOL DCT IDAVO DCT BAGBI DCT SIZZA DCT LAULY DCT BRY DCT CLM DCT KOPOR DCT KESAX DCT KUNAV T421 ICTAM L179 SAWPE |
| Aircraft | A21N/M-SDE3FGHIRWY/LB1 |
Departure
| Time | 2026-04-21 09:07 |
|---|---|
| Airport | Enfidha - Hammamet International Airport (DTNH) |
Arrival
| Time | 2026-04-21 12:06 |
|---|---|
| Airport | Bristol Airport (EGGD) |
| Time | Latitude | Longitude | Altitude | Speed | Heading |
|---|---|---|---|---|---|
| 2026-04-21 07:13 | 36.08197 | 10.43712 | 15 ft | 0 kts | 68° |
| 2026-04-21 08:54 | 36.08197 | 10.43710 | 16 ft | 1 kts | 68° |
| 2026-04-21 08:54 | 36.08191 | 10.43693 | 16 ft | 2 kts | 68° |
| 2026-04-21 08:54 | 36.08185 | 10.43676 | 16 ft | 2 kts | 68° |
| 2026-04-21 08:54 | 36.08179 | 10.43659 | 16 ft | 2 kts | 68° |
| 2026-04-21 08:55 | 36.08174 | 10.43642 | 16 ft | 2 kts | 70° |
| 2026-04-21 08:55 | 36.08173 | 10.43623 | 16 ft | 2 kts | 103° |
| 2026-04-21 08:55 | 36.08179 | 10.43606 | 16 ft | 1 kts | 128° |
| 2026-04-21 08:55 | 36.08183 | 10.43600 | 16 ft | 1 kts | 138° |
| 2026-04-21 08:56 | 36.08186 | 10.43598 | 16 ft | 0 kts | 135° |
| 2026-04-21 08:58 | 36.08182 | 10.43603 | 16 ft | 1 kts | 134° |
| 2026-04-21 08:58 | 36.08169 | 10.43619 | 16 ft | 2 kts | 134° |
| 2026-04-21 08:59 | 36.08154 | 10.43637 | 16 ft | 3 kts | 134° |
| 2026-04-21 08:59 | 36.08130 | 10.43666 | 16 ft | 5 kts | 135° |
| 2026-04-21 08:59 | 36.08098 | 10.43707 | 16 ft | 7 kts | 135° |
| 2026-04-21 08:59 | 36.08057 | 10.43756 | 16 ft | 9 kts | 137° |
| 2026-04-21 09:00 | 36.07996 | 10.43791 | 16 ft | 10 kts | 172° |
| 2026-04-21 09:00 | 36.07917 | 10.43793 | 16 ft | 12 kts | 180° |
| 2026-04-21 09:00 | 36.07829 | 10.43792 | 16 ft | 13 kts | 180° |
| 2026-04-21 09:00 | 36.07752 | 10.43746 | 15 ft | 14 kts | 252° |
| 2026-04-21 09:01 | 36.07747 | 10.43628 | 16 ft | 13 kts | 270° |
| 2026-04-21 09:01 | 36.07747 | 10.43501 | 16 ft | 14 kts | 270° |
| 2026-04-21 09:01 | 36.07748 | 10.43368 | 16 ft | 15 kts | 270° |
| 2026-04-21 09:01 | 36.07749 | 10.43228 | 16 ft | 16 kts | 270° |
| 2026-04-21 09:02 | 36.07750 | 10.43082 | 16 ft | 17 kts | 270° |
| 2026-04-21 09:02 | 36.07750 | 10.42932 | 16 ft | 17 kts | 270° |
| 2026-04-21 09:02 | 36.07751 | 10.42776 | 16 ft | 18 kts | 269° |
| 2026-04-21 09:03 | 36.07752 | 10.42452 | 16 ft | 19 kts | 270° |
| 2026-04-21 09:03 | 36.07753 | 10.42285 | 16 ft | 19 kts | 270° |
| 2026-04-21 09:03 | 36.07753 | 10.42129 | 16 ft | 11 kts | 269° |
| 2026-04-21 09:03 | 36.07743 | 10.42055 | 16 ft | 8 kts | 209° |
| 2026-04-21 09:04 | 36.07704 | 10.42043 | 16 ft | 0 kts | 182° |
| 2026-04-21 09:04 | 36.07702 | 10.42043 | 16 ft | 1 kts | 182° |
| 2026-04-21 09:05 | 36.07686 | 10.42042 | 16 ft | 3 kts | 182° |
| 2026-04-21 09:05 | 36.07657 | 10.42042 | 17 ft | 5 kts | 179° |
| 2026-04-21 09:05 | 36.07614 | 10.42043 | 16 ft | 6 kts | 179° |
| 2026-04-21 09:05 | 36.07583 | 10.42074 | 16 ft | 7 kts | 102° |
| 2026-04-21 09:06 | 36.07581 | 10.42140 | 16 ft | 8 kts | 88° |
| 2026-04-21 09:06 | 36.07581 | 10.42246 | 16 ft | 29 kts | 90° |
| 2026-04-21 09:06 | 36.07579 | 10.42818 | 17 ft | 101 kts | 90° |
| 2026-04-21 09:06 | 36.07574 | 10.43953 | 14 ft | 160 kts | 89° |
| 2026-04-21 09:07 | 36.07570 | 10.45461 | 298 ft | 184 kts | 90° |
| 2026-04-21 09:07 | 36.07630 | 10.47015 | 963 ft | 185 kts | 71° |
| 2026-04-21 09:07 | 36.08437 | 10.48168 | 1642 ft | 181 kts | 21° |
| 2026-04-21 09:07 | 36.09662 | 10.48292 | 2154 ft | 186 kts | 343° |
| 2026-04-21 09:08 | 36.10889 | 10.47664 | 2585 ft | 200 kts | 334° |
| 2026-04-21 09:08 | 36.12219 | 10.46947 | 3013 ft | 217 kts | 335° |
| 2026-04-21 09:08 | 36.13696 | 10.46194 | 3352 ft | 241 kts | 337° |
| 2026-04-21 09:08 | 36.15390 | 10.45791 | 3809 ft | 261 kts | 2° |
| 2026-04-21 09:09 | 36.17191 | 10.46236 | 4539 ft | 268 kts | 14° |
| 2026-04-21 09:09 | 36.18993 | 10.46899 | 5270 ft | 272 kts | 14° |
| 2026-04-21 09:09 | 36.20823 | 10.47552 | 5749 ft | 274 kts | 13° |
| 2026-04-21 09:09 | 36.22664 | 10.48163 | 5981 ft | 275 kts | 12° |
| 2026-04-21 09:10 | 36.24552 | 10.48756 | 6412 ft | 283 kts | 11° |
| 2026-04-21 09:10 | 36.26444 | 10.49336 | 7275 ft | 281 kts | 11° |
| 2026-04-21 09:10 | 36.28371 | 10.49623 | 8084 ft | 278 kts | 353° |
| 2026-04-21 09:10 | 36.30252 | 10.49145 | 8885 ft | 275 kts | 338° |
| 2026-04-21 09:11 | 36.32017 | 10.48315 | 9642 ft | 276 kts | 335° |
| 2026-04-21 09:11 | 36.33805 | 10.47432 | 10333 ft | 279 kts | 335° |
| 2026-04-21 09:11 | 36.35656 | 10.46519 | 10718 ft | 294 kts | 335° |
| 2026-04-21 09:11 | 36.37637 | 10.45551 | 11044 ft | 311 kts | 336° |
| 2026-04-21 09:12 | 36.39686 | 10.44564 | 11327 ft | 328 kts | 336° |
| 2026-04-21 09:12 | 36.41875 | 10.43532 | 11612 ft | 344 kts | 336° |
| 2026-04-21 09:12 | 36.44159 | 10.42458 | 11884 ft | 360 kts | 337° |
| 2026-04-21 09:12 | 36.46567 | 10.41325 | 12138 ft | 375 kts | 337° |
| 2026-04-21 09:13 | 36.49055 | 10.40155 | 12380 ft | 389 kts | 337° |
| 2026-04-21 09:13 | 36.51627 | 10.38945 | 12822 ft | 397 kts | 337° |
| 2026-04-21 09:13 | 36.54185 | 10.37741 | 13418 ft | 400 kts | 337° |
| 2026-04-21 09:13 | 36.56827 | 10.36496 | 13999 ft | 403 kts | 337° |
| 2026-04-21 09:14 | 36.59438 | 10.35263 | 14598 ft | 405 kts | 337° |
| 2026-04-21 09:14 | 36.62074 | 10.34019 | 15163 ft | 407 kts | 337° |
| 2026-04-21 09:14 | 36.64749 | 10.32754 | 15713 ft | 410 kts | 336° |
| 2026-04-21 09:14 | 36.67394 | 10.31502 | 16242 ft | 412 kts | 336° |
| 2026-04-21 09:15 | 36.70084 | 10.30229 | 16782 ft | 415 kts | 336° |
| 2026-04-21 09:15 | 36.72776 | 10.28952 | 17284 ft | 417 kts | 336° |
| 2026-04-21 09:15 | 36.75511 | 10.27655 | 17783 ft | 420 kts | 336° |
| 2026-04-21 09:15 | 36.78243 | 10.26356 | 18264 ft | 423 kts | 336° |
| 2026-04-21 09:16 | 36.80991 | 10.25049 | 18728 ft | 425 kts | 336° |
| 2026-04-21 09:16 | 36.83796 | 10.23764 | 19181 ft | 429 kts | 338° |
| 2026-04-21 09:16 | 36.86734 | 10.22617 | 19654 ft | 432 kts | 341° |
| 2026-04-21 09:16 | 36.89632 | 10.21662 | 20081 ft | 435 kts | 343° |
| 2026-04-21 09:17 | 36.92594 | 10.20736 | 20521 ft | 437 kts | 343° |
| 2026-04-21 09:17 | 36.95552 | 10.19823 | 20966 ft | 439 kts | 343° |
| 2026-04-21 09:17 | 36.98489 | 10.18916 | 21380 ft | 441 kts | 343° |
| 2026-04-21 09:17 | 37.01462 | 10.17995 | 21786 ft | 443 kts | 343° |
| 2026-04-21 09:18 | 37.04471 | 10.17062 | 22176 ft | 445 kts | 343° |
| 2026-04-21 09:18 | 37.07507 | 10.16117 | 22556 ft | 447 kts | 343° |
| 2026-04-21 09:18 | 37.10531 | 10.15175 | 23061 ft | 446 kts | 343° |
| 2026-04-21 09:18 | 37.13489 | 10.14257 | 23600 ft | 444 kts | 343° |
| 2026-04-21 09:19 | 37.16483 | 10.13328 | 24106 ft | 443 kts | 343° |
| 2026-04-21 09:19 | 37.19462 | 10.12401 | 24609 ft | 441 kts | 343° |
| 2026-04-21 09:19 | 37.22464 | 10.11464 | 25103 ft | 440 kts | 343° |
| 2026-04-21 09:19 | 37.25419 | 10.10541 | 25566 ft | 439 kts | 343° |
| 2026-04-21 09:20 | 37.28368 | 10.09619 | 26006 ft | 438 kts | 343° |
| 2026-04-21 09:20 | 37.31323 | 10.08692 | 26473 ft | 436 kts | 343° |
| 2026-04-21 09:20 | 37.34252 | 10.07772 | 26920 ft | 434 kts | 343° |
| 2026-04-21 09:20 | 37.37172 | 10.06854 | 27347 ft | 433 kts | 343° |
| 2026-04-21 09:21 | 37.40104 | 10.05934 | 27742 ft | 432 kts | 343° |
| 2026-04-21 09:21 | 37.42980 | 10.05026 | 28125 ft | 432 kts | 343° |
| 2026-04-21 09:21 | 37.45921 | 10.04097 | 28504 ft | 431 kts | 343° |
| 2026-04-21 09:21 | 37.48809 | 10.03183 | 28892 ft | 430 kts | 342° |
| 2026-04-21 09:22 | 37.51683 | 10.02274 | 29289 ft | 429 kts | 342° |
| 2026-04-21 09:22 | 37.54599 | 10.01350 | 29668 ft | 428 kts | 342° |
| 2026-04-21 09:22 | 37.57479 | 10.00437 | 30026 ft | 427 kts | 342° |
| 2026-04-21 09:22 | 37.60356 | 9.99525 | 30379 ft | 426 kts | 342° |
| 2026-04-21 09:23 | 37.63218 | 9.98615 | 30731 ft | 425 kts | 342° |
| 2026-04-21 09:23 | 37.66076 | 9.97707 | 31089 ft | 423 kts | 342° |
| 2026-04-21 09:23 | 37.68920 | 9.96803 | 31421 ft | 422 kts | 342° |
| 2026-04-21 09:23 | 37.71773 | 9.95894 | 31730 ft | 421 kts | 342° |
| 2026-04-21 09:24 | 37.74624 | 9.94985 | 32058 ft | 420 kts | 342° |
| 2026-04-21 09:24 | 37.77430 | 9.94091 | 32336 ft | 419 kts | 342° |
| 2026-04-21 09:24 | 37.80250 | 9.93193 | 32559 ft | 420 kts | 342° |
| 2026-04-21 09:24 | 37.83099 | 9.92286 | 32770 ft | 420 kts | 342° |
| 2026-04-21 09:25 | 37.85917 | 9.91389 | 32992 ft | 421 kts | 341° |
| 2026-04-21 09:25 | 37.88785 | 9.90475 | 33199 ft | 421 kts | 342° |
| 2026-04-21 09:25 | 37.91620 | 9.89569 | 33384 ft | 421 kts | 341° |
| 2026-04-21 09:25 | 37.94436 | 9.88668 | 33570 ft | 422 kts | 341° |
| 2026-04-21 09:26 | 37.97290 | 9.87754 | 33741 ft | 423 kts | 341° |
| 2026-04-21 09:26 | 38.00146 | 9.86840 | 33899 ft | 423 kts | 341° |
| 2026-04-21 09:26 | 38.05873 | 9.85004 | 33909 ft | 424 kts | 341° |
| 2026-04-21 09:27 | 38.11589 | 9.83170 | 33916 ft | 424 kts | 341° |
| 2026-04-21 09:27 | 38.17305 | 9.81343 | 33918 ft | 424 kts | 341° |
| 2026-04-21 09:28 | 38.23008 | 9.79508 | 33911 ft | 423 kts | 341° |
| 2026-04-21 09:28 | 38.28703 | 9.77679 | 33918 ft | 424 kts | 342° |
| 2026-04-21 09:29 | 38.34443 | 9.75845 | 33914 ft | 423 kts | 342° |
| 2026-04-21 09:29 | 38.40160 | 9.74010 | 33918 ft | 423 kts | 341° |
| 2026-04-21 09:30 | 38.45873 | 9.72174 | 33919 ft | 423 kts | 341° |
| 2026-04-21 09:30 | 38.51555 | 9.70341 | 33917 ft | 423 kts | 341° |
| 2026-04-21 09:31 | 38.57244 | 9.68505 | 33918 ft | 423 kts | 341° |
| 2026-04-21 09:31 | 38.62946 | 9.66661 | 33921 ft | 423 kts | 341° |
| 2026-04-21 09:32 | 38.68666 | 9.64808 | 33919 ft | 422 kts | 341° |
| 2026-04-21 09:32 | 38.74371 | 9.62956 | 33918 ft | 422 kts | 341° |
| 2026-04-21 09:33 | 38.80069 | 9.61104 | 33916 ft | 422 kts | 341° |
| 2026-04-21 09:33 | 38.85747 | 9.59254 | 33922 ft | 422 kts | 341° |
| 2026-04-21 09:34 | 38.91451 | 9.57387 | 33920 ft | 423 kts | 341° |
| 2026-04-21 09:34 | 38.97164 | 9.55452 | 33915 ft | 423 kts | 341° |
| 2026-04-21 09:35 | 39.02835 | 9.53520 | 33903 ft | 422 kts | 341° |
| 2026-04-21 09:35 | 39.08545 | 9.51573 | 33895 ft | 422 kts | 341° |
| 2026-04-21 09:36 | 39.14214 | 9.49646 | 33898 ft | 422 kts | 341° |
| 2026-04-21 09:36 | 39.19874 | 9.47723 | 33901 ft | 422 kts | 341° |
| 2026-04-21 09:37 | 39.25595 | 9.45769 | 33903 ft | 423 kts | 341° |
| 2026-04-21 09:37 | 39.31291 | 9.43817 | 33906 ft | 423 kts | 341° |
| 2026-04-21 09:38 | 39.36970 | 9.41868 | 33911 ft | 422 kts | 341° |
| 2026-04-21 09:38 | 39.42631 | 9.39921 | 33914 ft | 422 kts | 341° |
| 2026-04-21 09:39 | 39.48314 | 9.37962 | 33923 ft | 422 kts | 341° |
| 2026-04-21 09:39 | 39.53987 | 9.36003 | 33929 ft | 422 kts | 341° |
| 2026-04-21 09:40 | 39.59658 | 9.34033 | 33933 ft | 422 kts | 340° |
| 2026-04-21 09:40 | 39.65305 | 9.32049 | 33933 ft | 421 kts | 340° |
| 2026-04-21 09:41 | 39.71004 | 9.30057 | 33936 ft | 422 kts | 340° |
| 2026-04-21 09:41 | 39.76680 | 9.28081 | 33930 ft | 421 kts | 340° |
| 2026-04-21 09:42 | 39.82328 | 9.26114 | 33938 ft | 421 kts | 340° |
| 2026-04-21 09:42 | 39.87986 | 9.24139 | 33945 ft | 421 kts | 340° |
| 2026-04-21 09:43 | 39.93674 | 9.22153 | 33950 ft | 421 kts | 340° |
| 2026-04-21 09:43 | 39.99319 | 9.20177 | 33955 ft | 421 kts | 340° |
| 2026-04-21 09:44 | 40.05011 | 9.18182 | 33953 ft | 421 kts | 340° |
| 2026-04-21 09:44 | 40.10655 | 9.16200 | 33947 ft | 421 kts | 340° |
| 2026-04-21 09:45 | 40.16302 | 9.14226 | 33940 ft | 421 kts | 340° |
| 2026-04-21 09:45 | 40.21970 | 9.12237 | 33931 ft | 420 kts | 340° |
| 2026-04-21 09:46 | 40.27626 | 9.10245 | 33925 ft | 420 kts | 340° |
| 2026-04-21 09:46 | 40.33238 | 9.08261 | 33924 ft | 420 kts | 340° |
| 2026-04-21 09:47 | 40.38875 | 9.06263 | 33926 ft | 420 kts | 340° |
| 2026-04-21 09:47 | 40.44517 | 9.04262 | 33932 ft | 420 kts | 340° |
| 2026-04-21 09:48 | 40.50177 | 9.02250 | 33935 ft | 420 kts | 340° |
| 2026-04-21 09:48 | 40.55830 | 9.00238 | 33940 ft | 420 kts | 340° |
| 2026-04-21 09:49 | 40.61428 | 8.98241 | 33943 ft | 419 kts | 340° |
| 2026-04-21 09:49 | 40.67079 | 8.96223 | 33942 ft | 418 kts | 340° |
| 2026-04-21 09:50 | 40.71760 | 8.94547 | 34098 ft | 420 kts | 340° |
| 2026-04-21 09:50 | 40.78317 | 8.92198 | 34637 ft | 417 kts | 340° |
| 2026-04-21 09:51 | 40.81123 | 8.91190 | 34806 ft | 416 kts | 340° |
| 2026-04-21 09:51 | 40.83928 | 8.90181 | 34958 ft | 416 kts | 340° |
| 2026-04-21 09:51 | 40.86723 | 8.89174 | 35104 ft | 416 kts | 340° |
| 2026-04-21 09:51 | 40.89491 | 8.88178 | 35250 ft | 415 kts | 340° |
| 2026-04-21 09:52 | 40.92291 | 8.87195 | 35394 ft | 416 kts | 341° |
| 2026-04-21 09:52 | 40.95111 | 8.86377 | 35530 ft | 417 kts | 344° |
| 2026-04-21 09:52 | 40.97966 | 8.85748 | 35659 ft | 419 kts | 347° |
| 2026-04-21 09:52 | 41.00882 | 8.85311 | 35790 ft | 421 kts | 350° |
| 2026-04-21 09:53 | 41.03827 | 8.85074 | 35906 ft | 423 kts | 353° |
| 2026-04-21 09:53 | 41.06778 | 8.84995 | 35917 ft | 424 kts | 354° |
| 2026-04-21 09:53 | 41.12656 | 8.84933 | 35921 ft | 424 kts | 354° |
| 2026-04-21 09:54 | 41.18538 | 8.84821 | 35927 ft | 422 kts | 352° |
| 2026-04-21 09:54 | 41.24367 | 8.84061 | 35913 ft | 418 kts | 346° |
| 2026-04-21 09:55 | 41.30028 | 8.82512 | 35916 ft | 414 kts | 340° |
| 2026-04-21 09:55 | 41.35521 | 8.80277 | 35912 ft | 412 kts | 337° |
| 2026-04-21 09:56 | 41.40944 | 8.77856 | 35912 ft | 412 kts | 337° |
| 2026-04-21 09:56 | 41.46352 | 8.75434 | 35907 ft | 412 kts | 337° |
| 2026-04-21 09:57 | 41.51790 | 8.72998 | 35907 ft | 412 kts | 337° |
| 2026-04-21 09:57 | 41.57249 | 8.70550 | 35914 ft | 412 kts | 337° |
| 2026-04-21 09:58 | 41.62651 | 8.68123 | 35908 ft | 412 kts | 337° |
| 2026-04-21 09:58 | 41.68107 | 8.65669 | 35906 ft | 412 kts | 337° |
| 2026-04-21 09:59 | 41.73533 | 8.63225 | 35904 ft | 412 kts | 337° |
| 2026-04-21 09:59 | 41.78962 | 8.60775 | 35898 ft | 413 kts | 337° |
| 2026-04-21 10:00 | 41.84386 | 8.58322 | 35903 ft | 412 kts | 337° |
| 2026-04-21 10:00 | 41.89828 | 8.55857 | 35905 ft | 412 kts | 337° |
| 2026-04-21 10:01 | 41.95222 | 8.53407 | 35897 ft | 412 kts | 337° |
| 2026-04-21 10:01 | 42.00654 | 8.50939 | 35898 ft | 412 kts | 337° |
| 2026-04-21 10:02 | 42.08807 | 8.47222 | 35893 ft | 412 kts | 337° |
| 2026-04-21 10:03 | 42.14267 | 8.44738 | 35897 ft | 412 kts | 337° |
| 2026-04-21 10:03 | 42.19678 | 8.42271 | 35887 ft | 412 kts | 337° |
| 2026-04-21 10:04 | 42.25095 | 8.39785 | 35891 ft | 411 kts | 337° |
| 2026-04-21 10:04 | 42.30483 | 8.37236 | 35892 ft | 410 kts | 334° |
| 2026-04-21 10:05 | 42.35656 | 8.34091 | 35889 ft | 406 kts | 328° |
| 2026-04-21 10:05 | 42.40580 | 8.30449 | 35880 ft | 406 kts | 327° |
| 2026-04-21 10:06 | 42.45523 | 8.26732 | 35883 ft | 405 kts | 327° |
| 2026-04-21 10:06 | 42.50432 | 8.23040 | 35890 ft | 404 kts | 327° |
| 2026-04-21 10:07 | 42.55350 | 8.19337 | 35884 ft | 404 kts | 327° |
| 2026-04-21 10:07 | 42.60252 | 8.15642 | 35882 ft | 404 kts | 327° |
| 2026-04-21 10:08 | 42.65159 | 8.11938 | 35894 ft | 404 kts | 327° |
| 2026-04-21 10:08 | 42.70067 | 8.08228 | 35880 ft | 405 kts | 327° |
| 2026-04-21 10:09 | 42.75010 | 8.04481 | 35885 ft | 404 kts | 327° |
| 2026-04-21 10:09 | 42.79884 | 8.00783 | 35880 ft | 403 kts | 327° |
| 2026-04-21 10:10 | 42.84797 | 7.97048 | 35882 ft | 403 kts | 327° |
| 2026-04-21 10:10 | 42.89676 | 7.93331 | 35877 ft | 403 kts | 327° |
| 2026-04-21 10:11 | 42.94588 | 7.89584 | 35883 ft | 404 kts | 327° |
| 2026-04-21 10:11 | 42.99468 | 7.85853 | 35882 ft | 404 kts | 327° |
| 2026-04-21 10:12 | 43.04369 | 7.82100 | 35886 ft | 402 kts | 327° |
| 2026-04-21 10:12 | 43.09218 | 7.78377 | 35875 ft | 401 kts | 326° |
| 2026-04-21 10:13 | 43.14114 | 7.74613 | 35865 ft | 402 kts | 327° |
| 2026-04-21 10:13 | 43.19001 | 7.70852 | 35874 ft | 403 kts | 327° |
| 2026-04-21 10:14 | 43.23884 | 7.67076 | 35862 ft | 403 kts | 327° |
| 2026-04-21 10:14 | 43.28764 | 7.63292 | 35876 ft | 403 kts | 327° |
| 2026-04-21 10:15 | 43.33623 | 7.59514 | 35864 ft | 404 kts | 327° |
| 2026-04-21 10:15 | 43.38507 | 7.55709 | 35866 ft | 404 kts | 327° |
| 2026-04-21 10:16 | 43.43384 | 7.51903 | 35872 ft | 404 kts | 327° |
| 2026-04-21 10:16 | 43.48311 | 7.48049 | 35875 ft | 404 kts | 327° |
| 2026-04-21 10:17 | 43.53189 | 7.44224 | 35876 ft | 404 kts | 327° |
| 2026-04-21 10:17 | 43.58051 | 7.40406 | 35868 ft | 404 kts | 327° |
| 2026-04-21 10:18 | 43.62898 | 7.36490 | 35868 ft | 403 kts | 324° |
| 2026-04-21 10:18 | 43.67595 | 7.32225 | 35866 ft | 403 kts | 322° |
| 2026-04-21 10:19 | 43.72233 | 7.27956 | 35867 ft | 402 kts | 322° |
| 2026-04-21 10:19 | 43.76896 | 7.23667 | 35875 ft | 402 kts | 322° |
| 2026-04-21 10:20 | 43.81566 | 7.19372 | 35882 ft | 402 kts | 323° |
| 2026-04-21 10:20 | 43.86225 | 7.15084 | 35893 ft | 403 kts | 322° |
| 2026-04-21 10:21 | 43.90894 | 7.10776 | 35906 ft | 403 kts | 323° |
| 2026-04-21 10:21 | 43.95539 | 7.06484 | 35906 ft | 403 kts | 322° |
| 2026-04-21 10:22 | 44.00225 | 7.02147 | 35899 ft | 404 kts | 322° |
| 2026-04-21 10:22 | 44.04882 | 6.97827 | 35898 ft | 404 kts | 323° |
| 2026-04-21 10:23 | 44.09563 | 6.93480 | 35923 ft | 404 kts | 322° |
| 2026-04-21 10:23 | 44.14230 | 6.89152 | 35934 ft | 403 kts | 323° |
| 2026-04-21 10:24 | 44.18883 | 6.84823 | 35937 ft | 403 kts | 322° |
| 2026-04-21 10:24 | 44.23572 | 6.80441 | 35940 ft | 404 kts | 322° |
| 2026-04-21 10:25 | 44.28223 | 6.76080 | 35944 ft | 404 kts | 322° |
| 2026-04-21 10:25 | 44.32890 | 6.71692 | 35946 ft | 409 kts | 322° |
| 2026-04-21 10:26 | 44.37635 | 6.67223 | 35941 ft | 414 kts | 322° |
| 2026-04-21 10:26 | 44.42429 | 6.62697 | 35946 ft | 417 kts | 322° |
| 2026-04-21 10:27 | 44.47270 | 6.58118 | 35950 ft | 420 kts | 322° |
| 2026-04-21 10:27 | 44.52106 | 6.53549 | 35949 ft | 421 kts | 322° |
| 2026-04-21 10:28 | 44.56954 | 6.48958 | 35950 ft | 421 kts | 322° |
| 2026-04-21 10:28 | 44.61816 | 6.44340 | 35960 ft | 420 kts | 322° |
| 2026-04-21 10:29 | 44.66626 | 6.39762 | 35960 ft | 420 kts | 322° |
| 2026-04-21 10:29 | 44.71479 | 6.35133 | 35962 ft | 420 kts | 322° |
| 2026-04-21 10:30 | 44.76290 | 6.30512 | 35968 ft | 419 kts | 322° |
| 2026-04-21 10:30 | 44.81122 | 6.25863 | 35965 ft | 419 kts | 322° |
| 2026-04-21 10:31 | 44.85925 | 6.21243 | 35957 ft | 419 kts | 322° |
| 2026-04-21 10:31 | 44.90721 | 6.16624 | 35955 ft | 419 kts | 322° |
| 2026-04-21 10:32 | 44.95548 | 6.11972 | 35960 ft | 419 kts | 322° |
| 2026-04-21 10:32 | 45.00349 | 6.07334 | 35943 ft | 419 kts | 322° |
| 2026-04-21 10:33 | 45.05143 | 6.02692 | 35948 ft | 419 kts | 322° |
| 2026-04-21 10:33 | 45.09960 | 5.98022 | 35950 ft | 418 kts | 322° |
| 2026-04-21 10:34 | 45.14761 | 5.93381 | 35949 ft | 419 kts | 322° |
| 2026-04-21 10:34 | 45.19579 | 5.88706 | 35954 ft | 419 kts | 322° |
| 2026-04-21 10:35 | 45.24402 | 5.84006 | 35966 ft | 419 kts | 322° |
| 2026-04-21 10:35 | 45.29132 | 5.79389 | 35965 ft | 405 kts | 322° |
| 2026-04-21 10:36 | 45.33729 | 5.74880 | 35962 ft | 401 kts | 322° |
| 2026-04-21 10:36 | 45.38338 | 5.70349 | 35949 ft | 400 kts | 322° |
| 2026-04-21 10:37 | 45.42903 | 5.65854 | 35960 ft | 400 kts | 322° |
| 2026-04-21 10:37 | 45.47495 | 5.61324 | 35948 ft | 401 kts | 322° |
| 2026-04-21 10:38 | 45.52067 | 5.56804 | 35953 ft | 401 kts | 322° |
| 2026-04-21 10:38 | 45.56694 | 5.52306 | 35954 ft | 403 kts | 324° |
| 2026-04-21 10:39 | 45.61447 | 5.48051 | 35955 ft | 403 kts | 325° |
| 2026-04-21 10:39 | 45.66184 | 5.43827 | 35963 ft | 403 kts | 325° |
| 2026-04-21 10:40 | 45.70915 | 5.39594 | 35964 ft | 403 kts | 325° |
| 2026-04-21 10:40 | 45.75665 | 5.35334 | 35959 ft | 403 kts | 325° |
| 2026-04-21 10:41 | 45.80417 | 5.31039 | 35972 ft | 403 kts | 324° |
| 2026-04-21 10:41 | 45.85166 | 5.26745 | 35961 ft | 403 kts | 324° |
| 2026-04-21 10:42 | 45.89895 | 5.22471 | 35967 ft | 404 kts | 324° |
| 2026-04-21 10:42 | 45.94673 | 5.18152 | 35978 ft | 403 kts | 324° |
| 2026-04-21 10:43 | 45.99386 | 5.13882 | 35971 ft | 403 kts | 324° |
| 2026-04-21 10:43 | 46.04195 | 5.09721 | 35974 ft | 405 kts | 328° |
| 2026-04-21 10:44 | 46.09289 | 5.06167 | 35975 ft | 407 kts | 332° |
| 2026-04-21 10:44 | 46.14476 | 5.02879 | 35976 ft | 408 kts | 332° |
| 2026-04-21 10:45 | 46.19666 | 4.99590 | 35976 ft | 407 kts | 332° |
| 2026-04-21 10:45 | 46.24846 | 4.96285 | 35979 ft | 406 kts | 332° |
| 2026-04-21 10:46 | 46.30006 | 4.92986 | 35976 ft | 407 kts | 332° |
| 2026-04-21 10:46 | 46.35207 | 4.89652 | 35975 ft | 407 kts | 332° |
| 2026-04-21 10:47 | 46.40410 | 4.86307 | 35984 ft | 407 kts | 332° |
| 2026-04-21 10:47 | 46.45576 | 4.82977 | 35986 ft | 406 kts | 332° |
| 2026-04-21 10:48 | 46.50745 | 4.79642 | 35990 ft | 406 kts | 332° |
| 2026-04-21 10:48 | 46.55892 | 4.76310 | 35987 ft | 405 kts | 332° |
| 2026-04-21 10:49 | 46.61060 | 4.72959 | 35990 ft | 405 kts | 332° |
| 2026-04-21 10:49 | 46.66197 | 4.69622 | 35990 ft | 405 kts | 332° |
| 2026-04-21 10:50 | 46.71355 | 4.66262 | 35999 ft | 405 kts | 332° |
| 2026-04-21 10:50 | 46.76477 | 4.62917 | 36004 ft | 406 kts | 332° |
| 2026-04-21 10:51 | 46.81628 | 4.59551 | 35998 ft | 406 kts | 332° |
| 2026-04-21 10:51 | 46.86808 | 4.56186 | 36003 ft | 405 kts | 332° |
| 2026-04-21 10:52 | 46.91958 | 4.52840 | 35999 ft | 406 kts | 332° |
| 2026-04-21 10:52 | 46.97106 | 4.49484 | 35998 ft | 405 kts | 332° |
| 2026-04-21 10:53 | 47.02257 | 4.46120 | 36008 ft | 405 kts | 332° |
| 2026-04-21 10:53 | 47.07417 | 4.42743 | 35999 ft | 404 kts | 332° |
| 2026-04-21 10:54 | 47.12521 | 4.39400 | 36012 ft | 404 kts | 332° |
| 2026-04-21 10:54 | 47.17658 | 4.36041 | 35999 ft | 404 kts | 332° |
| 2026-04-21 10:55 | 47.22804 | 4.32643 | 36008 ft | 404 kts | 332° |
| 2026-04-21 10:55 | 47.27922 | 4.29245 | 36004 ft | 403 kts | 332° |
| 2026-04-21 10:56 | 47.33045 | 4.25849 | 36008 ft | 404 kts | 332° |
| 2026-04-21 10:56 | 47.38146 | 4.22463 | 36007 ft | 403 kts | 332° |
| 2026-04-21 10:57 | 47.43277 | 4.19053 | 36020 ft | 402 kts | 332° |
| 2026-04-21 10:57 | 47.48367 | 4.15665 | 36015 ft | 402 kts | 331° |
| 2026-04-21 10:58 | 47.53505 | 4.12233 | 36026 ft | 402 kts | 332° |
| 2026-04-21 10:58 | 47.58609 | 4.08823 | 36031 ft | 402 kts | 332° |
| 2026-04-21 10:59 | 47.63714 | 4.05412 | 36044 ft | 402 kts | 332° |
| 2026-04-21 10:59 | 47.68811 | 4.01996 | 36037 ft | 402 kts | 332° |
| 2026-04-21 11:00 | 47.73880 | 3.98538 | 36042 ft | 401 kts | 329° |
| 2026-04-21 11:00 | 47.78766 | 3.94402 | 36044 ft | 405 kts | 326° |
| 2026-04-21 11:01 | 47.83655 | 3.90150 | 36059 ft | 410 kts | 327° |
| 2026-04-21 11:01 | 47.88615 | 3.85853 | 36068 ft | 414 kts | 327° |
| 2026-04-21 11:02 | 47.96053 | 3.79422 | 36064 ft | 414 kts | 327° |
| 2026-04-21 11:02 | 48.01072 | 3.75076 | 36077 ft | 415 kts | 327° |
| 2026-04-21 11:03 | 48.06059 | 3.70745 | 36067 ft | 415 kts | 327° |
| 2026-04-21 11:03 | 48.11016 | 3.66434 | 36082 ft | 415 kts | 327° |
| 2026-04-21 11:04 | 48.16014 | 3.62102 | 36079 ft | 415 kts | 327° |
| 2026-04-21 11:04 | 48.21015 | 3.57747 | 36056 ft | 414 kts | 327° |
| 2026-04-21 11:05 | 48.25957 | 3.53425 | 36081 ft | 414 kts | 327° |
| 2026-04-21 11:05 | 48.30946 | 3.49047 | 36076 ft | 415 kts | 327° |
| 2026-04-21 11:06 | 48.35954 | 3.44640 | 36107 ft | 415 kts | 327° |
| 2026-04-21 11:06 | 48.40931 | 3.40252 | 36071 ft | 414 kts | 327° |
| 2026-04-21 11:07 | 48.45885 | 3.35872 | 36115 ft | 414 kts | 327° |
| 2026-04-21 11:07 | 48.50839 | 3.31466 | 36086 ft | 414 kts | 326° |
| 2026-04-21 11:08 | 48.55794 | 3.27041 | 36088 ft | 413 kts | 326° |
| 2026-04-21 11:08 | 48.60745 | 3.22628 | 36081 ft | 414 kts | 326° |
| 2026-04-21 11:09 | 48.65690 | 3.18215 | 36089 ft | 414 kts | 326° |
| 2026-04-21 11:09 | 48.70646 | 3.13785 | 36101 ft | 413 kts | 326° |
| 2026-04-21 11:10 | 48.75597 | 3.09346 | 36092 ft | 413 kts | 326° |
| 2026-04-21 11:10 | 48.80550 | 3.04900 | 36083 ft | 413 kts | 327° |
| 2026-04-21 11:11 | 48.85505 | 3.00451 | 36087 ft | 413 kts | 327° |
| 2026-04-21 11:11 | 48.90471 | 2.96115 | 36130 ft | 413 kts | 327° |
| 2026-04-21 11:12 | 48.95452 | 2.91770 | 36113 ft | 413 kts | 327° |
| 2026-04-21 11:12 | 49.00417 | 2.87421 | 36101 ft | 413 kts | 327° |
| 2026-04-21 11:13 | 49.05377 | 2.83065 | 36102 ft | 414 kts | 327° |
| 2026-04-21 11:13 | 49.10402 | 2.78640 | 36110 ft | 415 kts | 327° |
| 2026-04-21 11:14 | 49.15391 | 2.74262 | 36106 ft | 415 kts | 328° |
| 2026-04-21 11:14 | 49.20377 | 2.69866 | 36108 ft | 415 kts | 328° |
| 2026-04-21 11:15 | 49.25361 | 2.65451 | 36124 ft | 416 kts | 328° |
| 2026-04-21 11:15 | 49.30348 | 2.61019 | 36107 ft | 417 kts | 328° |
| 2026-04-21 11:16 | 49.35375 | 2.56538 | 36132 ft | 417 kts | 328° |
| 2026-04-21 11:16 | 49.40369 | 2.52072 | 36122 ft | 417 kts | 328° |
| 2026-04-21 11:17 | 49.45370 | 2.47591 | 36131 ft | 417 kts | 328° |
| 2026-04-21 11:17 | 49.50264 | 2.42928 | 36118 ft | 416 kts | 324° |
| 2026-04-21 11:18 | 49.54880 | 2.37539 | 36140 ft | 415 kts | 319° |
| 2026-04-21 11:18 | 49.59286 | 2.31738 | 36147 ft | 415 kts | 317° |
| 2026-04-21 11:19 | 49.63627 | 2.25943 | 36123 ft | 416 kts | 317° |
| 2026-04-21 11:19 | 49.67974 | 2.20135 | 36148 ft | 415 kts | 318° |
| 2026-04-21 11:20 | 49.72324 | 2.14321 | 36141 ft | 415 kts | 318° |
| 2026-04-21 11:20 | 49.76698 | 2.08467 | 36157 ft | 415 kts | 318° |
| 2026-04-21 11:21 | 49.81030 | 2.02653 | 36150 ft | 415 kts | 318° |
| 2026-04-21 11:21 | 49.85393 | 1.96783 | 36166 ft | 416 kts | 318° |
| 2026-04-21 11:22 | 49.89762 | 1.90891 | 36173 ft | 415 kts | 318° |
| 2026-04-21 11:22 | 49.94099 | 1.85032 | 36171 ft | 414 kts | 318° |
| 2026-04-21 11:23 | 49.98432 | 1.79158 | 36170 ft | 414 kts | 318° |
| 2026-04-21 11:23 | 50.02766 | 1.73271 | 36171 ft | 415 kts | 318° |
| 2026-04-21 11:24 | 50.07136 | 1.67317 | 36172 ft | 416 kts | 318° |
| 2026-04-21 11:24 | 50.11479 | 1.61431 | 36197 ft | 416 kts | 319° |
| 2026-04-21 11:25 | 50.15881 | 1.55494 | 36174 ft | 417 kts | 319° |
| 2026-04-21 11:25 | 50.20247 | 1.49575 | 36190 ft | 417 kts | 318° |
| 2026-04-21 11:26 | 50.24595 | 1.43650 | 36177 ft | 412 kts | 318° |
| 2026-04-21 11:26 | 50.28844 | 1.37839 | 36196 ft | 402 kts | 318° |
| 2026-04-21 11:27 | 50.33049 | 1.32060 | 36187 ft | 402 kts | 317° |
| 2026-04-21 11:27 | 50.37249 | 1.26260 | 36198 ft | 402 kts | 317° |
| 2026-04-21 11:28 | 50.41421 | 1.20503 | 36189 ft | 402 kts | 318° |
| 2026-04-21 11:28 | 50.45616 | 1.14704 | 36204 ft | 403 kts | 317° |
| 2026-04-21 11:29 | 50.49826 | 1.08872 | 36196 ft | 404 kts | 318° |
| 2026-04-21 11:29 | 50.54157 | 1.03262 | 36207 ft | 405 kts | 321° |
| 2026-04-21 11:30 | 50.58563 | 0.97811 | 36196 ft | 404 kts | 321° |
| 2026-04-21 11:30 | 50.62961 | 0.92357 | 36215 ft | 405 kts | 321° |
| 2026-04-21 11:31 | 50.67384 | 0.86860 | 36205 ft | 405 kts | 321° |
| 2026-04-21 11:31 | 50.71785 | 0.81373 | 36199 ft | 405 kts | 321° |
| 2026-04-21 11:32 | 50.76199 | 0.75856 | 36231 ft | 405 kts | 321° |
| 2026-04-21 11:32 | 50.80613 | 0.70325 | 36221 ft | 405 kts | 321° |
| 2026-04-21 11:33 | 50.85010 | 0.64800 | 36220 ft | 405 kts | 321° |
| 2026-04-21 11:33 | 50.89426 | 0.59239 | 36238 ft | 406 kts | 321° |
| 2026-04-21 11:34 | 50.93837 | 0.53671 | 36230 ft | 406 kts | 320° |
| 2026-04-21 11:34 | 50.98241 | 0.48094 | 36223 ft | 406 kts | 321° |
| 2026-04-21 11:35 | 51.02566 | 0.42608 | 36223 ft | 405 kts | 321° |
| 2026-04-21 11:35 | 51.06950 | 0.37029 | 36230 ft | 406 kts | 321° |
| 2026-04-21 11:36 | 51.11362 | 0.31393 | 36236 ft | 406 kts | 320° |
| 2026-04-21 11:36 | 51.15786 | 0.25752 | 36238 ft | 407 kts | 320° |
| 2026-04-21 11:37 | 51.20176 | 0.20131 | 36248 ft | 408 kts | 320° |
| 2026-04-21 11:37 | 51.24590 | 0.14457 | 36245 ft | 408 kts | 320° |
| 2026-04-21 11:38 | 51.28737 | 0.08311 | 36237 ft | 408 kts | 311° |
| 2026-04-21 11:38 | 51.32123 | 0.01072 | 36246 ft | 408 kts | 302° |
| 2026-04-21 11:39 | 51.34644 | -0.07069 | 36249 ft | 410 kts | 292° |
| 2026-04-21 11:39 | 51.36319 | -0.15793 | 36139 ft | 412 kts | 287° |
| 2026-04-21 11:40 | 51.37061 | -0.20198 | 35919 ft | 409 kts | 287° |
| 2026-04-21 11:40 | 51.37787 | -0.24558 | 35708 ft | 407 kts | 287° |
| 2026-04-21 11:40 | 51.38514 | -0.28937 | 35392 ft | 404 kts | 287° |
| 2026-04-21 11:40 | 51.39233 | -0.33261 | 34944 ft | 405 kts | 288° |
| 2026-04-21 11:41 | 51.39956 | -0.37626 | 34333 ft | 407 kts | 288° |
| 2026-04-21 11:41 | 51.40681 | -0.42004 | 33640 ft | 407 kts | 288° |
| 2026-04-21 11:41 | 51.41394 | -0.46330 | 32989 ft | 406 kts | 288° |
| 2026-04-21 11:41 | 51.42117 | -0.50721 | 32323 ft | 405 kts | 288° |
| 2026-04-21 11:42 | 51.42823 | -0.55026 | 31663 ft | 403 kts | 288° |
| 2026-04-21 11:42 | 51.43539 | -0.59394 | 30993 ft | 402 kts | 289° |
| 2026-04-21 11:42 | 51.44241 | -0.63694 | 30309 ft | 400 kts | 288° |
| 2026-04-21 11:42 | 51.44938 | -0.67969 | 29612 ft | 398 kts | 288° |
| 2026-04-21 11:43 | 51.45641 | -0.72303 | 28911 ft | 397 kts | 288° |
| 2026-04-21 11:43 | 51.46328 | -0.76541 | 28215 ft | 396 kts | 288° |
| 2026-04-21 11:43 | 51.47010 | -0.80766 | 27513 ft | 396 kts | 288° |
| 2026-04-21 11:43 | 51.47701 | -0.85039 | 26783 ft | 395 kts | 288° |
| 2026-04-21 11:44 | 51.48391 | -0.89329 | 26050 ft | 396 kts | 288° |
| 2026-04-21 11:44 | 51.49067 | -0.93537 | 25301 ft | 396 kts | 288° |
| 2026-04-21 11:44 | 51.49752 | -0.97813 | 24528 ft | 398 kts | 288° |
| 2026-04-21 11:44 | 51.50445 | -1.02144 | 23715 ft | 400 kts | 287° |
| 2026-04-21 11:45 | 51.51128 | -1.06424 | 22918 ft | 403 kts | 287° |
| 2026-04-21 11:45 | 51.51822 | -1.10790 | 22141 ft | 406 kts | 287° |
| 2026-04-21 11:45 | 51.52507 | -1.15190 | 21575 ft | 404 kts | 286° |
| 2026-04-21 11:45 | 51.53082 | -1.19577 | 21005 ft | 403 kts | 284° |
| 2026-04-21 11:46 | 51.53611 | -1.23978 | 20462 ft | 402 kts | 284° |
| 2026-04-21 11:46 | 51.54131 | -1.28369 | 19909 ft | 404 kts | 284° |
| 2026-04-21 11:46 | 51.54649 | -1.32761 | 19348 ft | 405 kts | 284° |
| 2026-04-21 11:46 | 51.55171 | -1.37195 | 18792 ft | 405 kts | 283° |
| 2026-04-21 11:47 | 51.55694 | -1.41654 | 18234 ft | 405 kts | 283° |
| 2026-04-21 11:47 | 51.56214 | -1.46096 | 17676 ft | 404 kts | 283° |
| 2026-04-21 11:47 | 51.56728 | -1.50497 | 17138 ft | 403 kts | 283° |
| 2026-04-21 11:47 | 51.57238 | -1.54901 | 16596 ft | 402 kts | 283° |
| 2026-04-21 11:48 | 51.57747 | -1.59298 | 16052 ft | 400 kts | 283° |
| 2026-04-21 11:48 | 51.58246 | -1.63647 | 15512 ft | 399 kts | 282° |
| 2026-04-21 11:48 | 51.58655 | -1.68130 | 14956 ft | 399 kts | 278° |
| 2026-04-21 11:48 | 51.58980 | -1.72490 | 14601 ft | 390 kts | 278° |
| 2026-04-21 11:49 | 51.59283 | -1.76728 | 14439 ft | 376 kts | 278° |
| 2026-04-21 11:49 | 51.59576 | -1.80844 | 14297 ft | 363 kts | 278° |
| 2026-04-21 11:49 | 51.59856 | -1.84834 | 14126 ft | 357 kts | 276° |
| 2026-04-21 11:49 | 51.59752 | -1.88752 | 13678 ft | 358 kts | 259° |
| 2026-04-21 11:50 | 51.58949 | -1.92515 | 13236 ft | 357 kts | 242° |
| 2026-04-21 11:50 | 51.57666 | -1.95931 | 12949 ft | 349 kts | 236° |
| 2026-04-21 11:50 | 51.56355 | -1.99115 | 12852 ft | 336 kts | 236° |
| 2026-04-21 11:50 | 51.55102 | -2.02151 | 12775 ft | 322 kts | 236° |
| 2026-04-21 11:51 | 51.53898 | -2.05118 | 12702 ft | 309 kts | 237° |
| 2026-04-21 11:51 | 51.52848 | -2.08014 | 12638 ft | 297 kts | 243° |
| 2026-04-21 11:51 | 51.52035 | -2.11051 | 12412 ft | 302 kts | 253° |
| 2026-04-21 11:51 | 51.51535 | -2.14369 | 12212 ft | 303 kts | 259° |
| 2026-04-21 11:52 | 51.51141 | -2.17667 | 11815 ft | 303 kts | 260° |
| 2026-04-21 11:52 | 51.50764 | -2.20992 | 11387 ft | 304 kts | 260° |
| 2026-04-21 11:52 | 51.50393 | -2.24310 | 10993 ft | 303 kts | 260° |
| 2026-04-21 11:52 | 51.50026 | -2.27633 | 10594 ft | 302 kts | 260° |
| 2026-04-21 11:53 | 51.49667 | -2.30921 | 10199 ft | 301 kts | 260° |
| 2026-04-21 11:53 | 51.49383 | -2.34253 | 9811 ft | 300 kts | 267° |
| 2026-04-21 11:53 | 51.49314 | -2.37582 | 9433 ft | 298 kts | 270° |
| 2026-04-21 11:53 | 51.49295 | -2.40880 | 9047 ft | 298 kts | 270° |
| 2026-04-21 11:54 | 51.49288 | -2.44190 | 8611 ft | 296 kts | 270° |
| 2026-04-21 11:54 | 51.49285 | -2.47453 | 8096 ft | 295 kts | 270° |
| 2026-04-21 11:54 | 51.49285 | -2.50750 | 7560 ft | 295 kts | 270° |
| 2026-04-21 11:54 | 51.49287 | -2.54035 | 7034 ft | 293 kts | 270° |
| 2026-04-21 11:55 | 51.49291 | -2.57279 | 6509 ft | 293 kts | 270° |
| 2026-04-21 11:55 | 51.49295 | -2.60519 | 5993 ft | 291 kts | 271° |
| 2026-04-21 11:55 | 51.49291 | -2.63761 | 5496 ft | 290 kts | 271° |
| 2026-04-21 11:55 | 51.49277 | -2.66980 | 5129 ft | 283 kts | 270° |
| 2026-04-21 11:56 | 51.49257 | -2.70175 | 5008 ft | 288 kts | 270° |
| 2026-04-21 11:56 | 51.49234 | -2.73356 | 4776 ft | 288 kts | 270° |
| 2026-04-21 11:56 | 51.49208 | -2.76557 | 4574 ft | 286 kts | 270° |
| 2026-04-21 11:56 | 51.49181 | -2.79687 | 4365 ft | 279 kts | 270° |
| 2026-04-21 11:57 | 51.49154 | -2.82767 | 4159 ft | 272 kts | 270° |
| 2026-04-21 11:57 | 51.49126 | -2.85784 | 3948 ft | 266 kts | 270° |
| 2026-04-21 11:57 | 51.49094 | -2.88697 | 3740 ft | 260 kts | 270° |
| 2026-04-21 11:57 | 51.49054 | -2.91557 | 3529 ft | 254 kts | 270° |
| 2026-04-21 11:58 | 51.49007 | -2.94358 | 3327 ft | 251 kts | 270° |
| 2026-04-21 11:58 | 51.48954 | -2.97154 | 3125 ft | 250 kts | 270° |
| 2026-04-21 11:58 | 51.48898 | -2.99913 | 2978 ft | 248 kts | 270° |
| 2026-04-21 11:58 | 51.48838 | -3.02658 | 2724 ft | 247 kts | 270° |
| 2026-04-21 11:59 | 51.48777 | -3.05395 | 2509 ft | 245 kts | 270° |
| 2026-04-21 11:59 | 51.48710 | -3.08139 | 2497 ft | 248 kts | 268° |
| 2026-04-21 11:59 | 51.48264 | -3.10771 | 2446 ft | 246 kts | 233° |
| 2026-04-21 11:59 | 51.47010 | -3.12468 | 2464 ft | 228 kts | 197° |
| 2026-04-21 12:00 | 51.45522 | -3.12934 | 2476 ft | 217 kts | 169° |
| 2026-04-21 12:00 | 51.44109 | -3.12359 | 2479 ft | 206 kts | 145° |
| 2026-04-21 12:00 | 51.43014 | -3.10955 | 2538 ft | 192 kts | 123° |
| 2026-04-21 12:00 | 51.42320 | -3.09138 | 2536 ft | 195 kts | 113° |
| 2026-04-21 12:01 | 51.41685 | -3.07214 | 2500 ft | 196 kts | 113° |
| 2026-04-21 12:01 | 51.41043 | -3.05283 | 2485 ft | 197 kts | 113° |
| 2026-04-21 12:01 | 51.40384 | -3.03336 | 2479 ft | 197 kts | 113° |
| 2026-04-21 12:01 | 51.39728 | -3.01421 | 2473 ft | 198 kts | 114° |
| 2026-04-21 12:02 | 51.39061 | -2.99483 | 2472 ft | 198 kts | 114° |
| 2026-04-21 12:02 | 51.37734 | -2.95639 | 2391 ft | 198 kts | 113° |
| 2026-04-21 12:02 | 51.37349 | -2.93627 | 2417 ft | 190 kts | 89° |
| 2026-04-21 12:03 | 51.37434 | -2.91502 | 2463 ft | 190 kts | 81° |
| 2026-04-21 12:03 | 51.37585 | -2.89474 | 2535 ft | 177 kts | 82° |
| 2026-04-21 12:03 | 51.37680 | -2.87593 | 2389 ft | 167 kts | 84° |
| 2026-04-21 12:03 | 51.37747 | -2.85762 | 2152 ft | 160 kts | 84° |
| 2026-04-21 12:04 | 51.37804 | -2.84062 | 1920 ft | 147 kts | 83° |
| 2026-04-21 12:04 | 51.37861 | -2.82488 | 1751 ft | 137 kts | 83° |
| 2026-04-21 12:04 | 51.37918 | -2.80984 | 1562 ft | 136 kts | 83° |
| 2026-04-21 12:04 | 51.37978 | -2.79472 | 1383 ft | 137 kts | 82° |
| 2026-04-21 12:05 | 51.38034 | -2.77942 | 1211 ft | 138 kts | 83° |
| 2026-04-21 12:05 | 51.38091 | -2.76404 | 1035 ft | 139 kts | 83° |
| 2026-04-21 12:05 | 51.38151 | -2.74860 | 833 ft | 139 kts | 83° |
| 2026-04-21 12:05 | 51.38207 | -2.73321 | 663 ft | 140 kts | 82° |
| 2026-04-21 12:06 | 51.38266 | -2.71952 | 610 ft | 87 kts | 85° |
| 2026-04-21 12:06 | 51.38289 | -2.71369 | 606 ft | 38 kts | 86° |
| 2026-04-21 12:06 | 51.38304 | -2.70982 | 606 ft | 25 kts | 86° |
| 2026-04-21 12:06 | 51.38343 | -2.70767 | 607 ft | 12 kts | 23° |
| 2026-04-21 12:07 | 51.38426 | -2.70714 | 606 ft | 13 kts | 9° |
| 2026-04-21 12:07 | 51.38468 | -2.70829 | 603 ft | 15 kts | 268° |
| 2026-04-21 12:07 | 51.38464 | -2.70956 | 603 ft | 10 kts | 266° |
| 2026-04-21 12:07 | 51.38459 | -2.71084 | 603 ft | 12 kts | 266° |
| 2026-04-21 12:08 | 51.38453 | -2.71232 | 603 ft | 13 kts | 266° |
| 2026-04-21 12:08 | 51.38448 | -2.71363 | 603 ft | 10 kts | 268° |
| 2026-04-21 12:08 | 51.38480 | -2.71407 | 603 ft | 5 kts | 332° |
| 2026-04-21 12:08 | 51.38506 | -2.71456 | 602 ft | 6 kts | 335° |
| 2026-04-21 12:09 | 51.38539 | -2.71467 | 600 ft | 4 kts | 355° |
| 2026-04-21 12:09 | 51.38551 | -2.71469 | 599 ft | 0 kts | 355° |